sensor_id;sensor_type;location;lat;lon;timestamp;P1;durP1;ratioP1;P2;durP2;ratioP2
26977;SDS011;56314;48.088;11.642;2023-04-24T00:02:07;2.47;;;1.35;;
26977;SDS011;56314;48.088;11.642;2023-04-24T00:04:35;1.40;;;1.10;;
26977;SDS011;56314;48.088;11.642;2023-04-24T00:07:05;1.85;;;1.02;;
26977;SDS011;56314;48.088;11.642;2023-04-24T00:09:31;2.45;;;1.77;;
26977;SDS011;56314;48.088;11.642;2023-04-24T00:11:57;2.63;;;1.30;;
26977;SDS011;56314;48.088;11.642;2023-04-24T00:14:22;2.40;;;1.20;;
26977;SDS011;56314;48.088;11.642;2023-04-24T00:16:48;1.33;;;0.90;;
26977;SDS011;56314;48.088;11.642;2023-04-24T00:19:13;3.15;;;1.30;;
26977;SDS011;56314;48.088;11.642;2023-04-24T00:21:39;2.42;;;1.20;;
26977;SDS011;56314;48.088;11.642;2023-04-24T00:24:04;1.00;;;0.90;;
26977;SDS011;56314;48.088;11.642;2023-04-24T00:26:30;1.52;;;1.10;;
26977;SDS011;56314;48.088;11.642;2023-04-24T00:28:55;2.60;;;1.13;;
26977;SDS011;56314;48.088;11.642;2023-04-24T00:31:20;1.77;;;1.08;;
26977;SDS011;56314;48.088;11.642;2023-04-24T00:33:46;4.00;;;0.77;;
26977;SDS011;56314;48.088;11.642;2023-04-24T00:36:11;0.75;;;0.73;;
26977;SDS011;56314;48.088;11.642;2023-04-24T00:38:36;5.75;;;0.90;;
26977;SDS011;56314;48.088;11.642;2023-04-24T00:41:02;1.92;;;0.93;;
26977;SDS011;56314;48.088;11.642;2023-04-24T00:43:27;0.88;;;0.88;;
26977;SDS011;56314;48.088;11.642;2023-04-24T00:45:53;2.10;;;0.77;;
26977;SDS011;56314;48.088;11.642;2023-04-24T00:48:19;1.27;;;0.75;;
26977;SDS011;56314;48.088;11.642;2023-04-24T00:50:45;1.10;;;0.70;;
26977;SDS011;56314;48.088;11.642;2023-04-24T00:53:10;0.77;;;0.77;;
26977;SDS011;56314;48.088;11.642;2023-04-24T00:55:36;0.52;;;0.50;;
26977;SDS011;56314;48.088;11.642;2023-04-24T00:58:02;1.40;;;0.68;;
26977;SDS011;56314;48.088;11.642;2023-04-24T01:00:27;1.55;;;0.43;;
26977;SDS011;56314;48.088;11.642;2023-04-24T01:02:53;0.77;;;0.63;;
26977;SDS011;56314;48.088;11.642;2023-04-24T01:05:20;0.45;;;0.45;;
26977;SDS011;56314;48.088;11.642;2023-04-24T01:07:45;2.25;;;0.65;;
26977;SDS011;56314;48.088;11.642;2023-04-24T01:10:14;1.08;;;0.60;;
26977;SDS011;56314;48.088;11.642;2023-04-24T01:12:40;3.00;;;0.70;;
26977;SDS011;56314;48.088;11.642;2023-04-24T01:15:05;1.65;;;0.60;;
26977;SDS011;56314;48.088;11.642;2023-04-24T01:17:31;0.60;;;0.55;;
26977;SDS011;56314;48.088;11.642;2023-04-24T01:19:57;0.60;;;0.60;;
26977;SDS011;56314;48.088;11.642;2023-04-24T01:22:24;0.45;;;0.43;;
26977;SDS011;56314;48.088;11.642;2023-04-24T01:24:51;0.40;;;0.40;;
26977;SDS011;56314;48.088;11.642;2023-04-24T01:27:17;0.60;;;0.55;;
26977;SDS011;56314;48.088;11.642;2023-04-24T01:29:42;0.40;;;0.40;;
26977;SDS011;56314;48.088;11.642;2023-04-24T01:32:08;1.00;;;0.60;;
26977;SDS011;56314;48.088;11.642;2023-04-24T01:34:33;0.40;;;0.40;;
26977;SDS011;56314;48.088;11.642;2023-04-24T01:36:59;0.40;;;0.40;;
26977;SDS011;56314;48.088;11.642;2023-04-24T01:39:25;1.25;;;0.60;;
26977;SDS011;56314;48.088;11.642;2023-04-24T01:41:53;0.40;;;0.40;;
26977;SDS011;56314;48.088;11.642;2023-04-24T01:44:19;1.42;;;0.40;;
26977;SDS011;56314;48.088;11.642;2023-04-24T01:46:44;0.30;;;0.30;;
26977;SDS011;56314;48.088;11.642;2023-04-24T01:49:10;0.70;;;0.60;;
26977;SDS011;56314;48.088;11.642;2023-04-24T01:51:35;1.13;;;0.40;;
26977;SDS011;56314;48.088;11.642;2023-04-24T01:54:01;0.40;;;0.40;;
26977;SDS011;56314;48.088;11.642;2023-04-24T01:56:26;0.20;;;0.20;;
26977;SDS011;56314;48.088;11.642;2023-04-24T01:58:54;0.28;;;0.28;;
26977;SDS011;56314;48.088;11.642;2023-04-24T02:01:21;0.77;;;0.40;;
26977;SDS011;56314;48.088;11.642;2023-04-24T02:03:48;0.30;;;0.30;;
26977;SDS011;56314;48.088;11.642;2023-04-24T02:06:13;0.30;;;0.20;;
26977;SDS011;56314;48.088;11.642;2023-04-24T02:08:39;0.28;;;0.28;;
26977;SDS011;56314;48.088;11.642;2023-04-24T02:11:04;0.45;;;0.43;;
26977;SDS011;56314;48.088;11.642;2023-04-24T02:13:30;0.20;;;0.20;;
26977;SDS011;56314;48.088;11.642;2023-04-24T02:15:57;0.50;;;0.40;;
26977;SDS011;56314;48.088;11.642;2023-04-24T02:18:23;1.85;;;0.30;;
26977;SDS011;56314;48.088;11.642;2023-04-24T02:20:48;0.30;;;0.30;;
26977;SDS011;56314;48.088;11.642;2023-04-24T02:23:14;0.25;;;0.25;;
26977;SDS011;56314;48.088;11.642;2023-04-24T02:25:39;0.20;;;0.20;;
26977;SDS011;56314;48.088;11.642;2023-04-24T02:28:07;0.20;;;0.20;;
26977;SDS011;56314;48.088;11.642;2023-04-24T02:30:32;0.40;;;0.40;;
26977;SDS011;56314;48.088;11.642;2023-04-24T02:32:57;0.30;;;0.30;;
26977;SDS011;56314;48.088;11.642;2023-04-24T02:35:23;0.30;;;0.30;;
26977;SDS011;56314;48.088;11.642;2023-04-24T02:37:48;0.30;;;0.30;;
26977;SDS011;56314;48.088;11.642;2023-04-24T02:40:13;0.85;;;0.40;;
26977;SDS011;56314;48.088;11.642;2023-04-24T02:42:39;0.28;;;0.28;;
26977;SDS011;56314;48.088;11.642;2023-04-24T02:45:04;0.22;;;0.22;;
26977;SDS011;56314;48.088;11.642;2023-04-24T02:47:30;0.20;;;0.20;;
26977;SDS011;56314;48.088;11.642;2023-04-24T02:49:55;0.22;;;0.17;;
26977;SDS011;56314;48.088;11.642;2023-04-24T02:52:21;0.20;;;0.20;;
26977;SDS011;56314;48.088;11.642;2023-04-24T02:54:46;0.20;;;0.20;;
26977;SDS011;56314;48.088;11.642;2023-04-24T02:57:11;2.13;;;0.35;;
26977;SDS011;56314;48.088;11.642;2023-04-24T02:59:37;0.30;;;0.30;;
26977;SDS011;56314;48.088;11.642;2023-04-24T03:02:02;0.63;;;0.30;;
26977;SDS011;56314;48.088;11.642;2023-04-24T03:04:27;1.55;;;0.30;;
26977;SDS011;56314;48.088;11.642;2023-04-24T03:06:53;0.47;;;0.30;;
26977;SDS011;56314;48.088;11.642;2023-04-24T03:09:20;0.28;;;0.28;;
26977;SDS011;56314;48.088;11.642;2023-04-24T03:11:45;0.63;;;0.38;;
26977;SDS011;56314;48.088;11.642;2023-04-24T03:14:11;0.32;;;0.22;;
26977;SDS011;56314;48.088;11.642;2023-04-24T03:16:36;0.73;;;0.73;;
26977;SDS011;56314;48.088;11.642;2023-04-24T03:19:02;0.38;;;0.30;;
26977;SDS011;56314;48.088;11.642;2023-04-24T03:21:27;0.25;;;0.25;;
26977;SDS011;56314;48.088;11.642;2023-04-24T03:23:52;0.28;;;0.28;;
26977;SDS011;56314;48.088;11.642;2023-04-24T03:26:18;1.05;;;0.22;;
26977;SDS011;56314;48.088;11.642;2023-04-24T03:28:43;0.95;;;0.40;;
26977;SDS011;56314;48.088;11.642;2023-04-24T03:31:08;0.38;;;0.38;;
26977;SDS011;56314;48.088;11.642;2023-04-24T03:33:34;0.30;;;0.30;;
26977;SDS011;56314;48.088;11.642;2023-04-24T03:36:00;0.38;;;0.35;;
26977;SDS011;56314;48.088;11.642;2023-04-24T03:38:26;0.40;;;0.40;;
26977;SDS011;56314;48.088;11.642;2023-04-24T03:40:51;0.43;;;0.43;;
26977;SDS011;56314;48.088;11.642;2023-04-24T03:43:17;1.05;;;0.40;;
26977;SDS011;56314;48.088;11.642;2023-04-24T03:45:42;0.30;;;0.30;;
26977;SDS011;56314;48.088;11.642;2023-04-24T03:48:07;0.47;;;0.47;;
26977;SDS011;56314;48.088;11.642;2023-04-24T03:50:33;0.77;;;0.55;;
26977;SDS011;56314;48.088;11.642;2023-04-24T03:52:58;0.40;;;0.40;;
26977;SDS011;56314;48.088;11.642;2023-04-24T03:55:23;0.40;;;0.40;;
26977;SDS011;56314;48.088;11.642;2023-04-24T03:57:49;0.32;;;0.32;;
26977;SDS011;56314;48.088;11.642;2023-04-24T04:00:14;0.50;;;0.50;;
26977;SDS011;56314;48.088;11.642;2023-04-24T04:02:40;0.45;;;0.45;;
26977;SDS011;56314;48.088;11.642;2023-04-24T04:05:06;0.47;;;0.47;;
26977;SDS011;56314;48.088;11.642;2023-04-24T04:07:31;0.30;;;0.30;;
26977;SDS011;56314;48.088;11.642;2023-04-24T04:09:56;0.50;;;0.50;;
26977;SDS011;56314;48.088;11.642;2023-04-24T04:12:22;1.02;;;0.50;;
26977;SDS011;56314;48.088;11.642;2023-04-24T04:14:47;1.38;;;0.40;;
26977;SDS011;56314;48.088;11.642;2023-04-24T04:17:12;0.30;;;0.30;;
26977;SDS011;56314;48.088;11.642;2023-04-24T04:19:38;0.73;;;0.73;;
26977;SDS011;56314;48.088;11.642;2023-04-24T04:22:03;0.68;;;0.30;;
26977;SDS011;56314;48.088;11.642;2023-04-24T04:24:29;0.50;;;0.50;;
26977;SDS011;56314;48.088;11.642;2023-04-24T04:26:54;0.30;;;0.30;;
26977;SDS011;56314;48.088;11.642;2023-04-24T04:29:23;0.30;;;0.30;;
26977;SDS011;56314;48.088;11.642;2023-04-24T04:31:48;0.82;;;0.50;;
26977;SDS011;56314;48.088;11.642;2023-04-24T04:34:14;0.85;;;0.70;;
26977;SDS011;56314;48.088;11.642;2023-04-24T04:36:40;1.75;;;0.30;;
26977;SDS011;56314;48.088;11.642;2023-04-24T04:39:06;2.47;;;0.40;;
26977;SDS011;56314;48.088;11.642;2023-04-24T04:41:31;1.00;;;0.47;;
26977;SDS011;56314;48.088;11.642;2023-04-24T04:44:00;0.60;;;0.50;;
26977;SDS011;56314;48.088;11.642;2023-04-24T04:46:25;0.73;;;0.40;;
26977;SDS011;56314;48.088;11.642;2023-04-24T04:48:52;17.75;;;0.98;;
26977;SDS011;56314;48.088;11.642;2023-04-24T04:51:18;1.90;;;0.40;;
26977;SDS011;56314;48.088;11.642;2023-04-24T04:53:43;0.30;;;0.30;;
26977;SDS011;56314;48.088;11.642;2023-04-24T04:56:08;0.82;;;0.30;;
26977;SDS011;56314;48.088;11.642;2023-04-24T04:58:34;1.00;;;0.50;;
26977;SDS011;56314;48.088;11.642;2023-04-24T05:00:59;1.00;;;0.40;;
26977;SDS011;56314;48.088;11.642;2023-04-24T05:03:25;0.50;;;0.50;;
26977;SDS011;56314;48.088;11.642;2023-04-24T05:05:50;2.33;;;0.60;;
26977;SDS011;56314;48.088;11.642;2023-04-24T05:08:15;0.35;;;0.30;;
26977;SDS011;56314;48.088;11.642;2023-04-24T05:10:41;0.52;;;0.50;;
26977;SDS011;56314;48.088;11.642;2023-04-24T05:13:06;0.75;;;0.30;;
26977;SDS011;56314;48.088;11.642;2023-04-24T05:15:32;0.55;;;0.30;;
26977;SDS011;56314;48.088;11.642;2023-04-24T05:17:57;0.30;;;0.30;;
26977;SDS011;56314;48.088;11.642;2023-04-24T05:20:22;1.60;;;0.45;;
26977;SDS011;56314;48.088;11.642;2023-04-24T05:22:48;0.80;;;0.77;;
26977;SDS011;56314;48.088;11.642;2023-04-24T05:25:13;0.40;;;0.40;;
26977;SDS011;56314;48.088;11.642;2023-04-24T05:27:38;0.30;;;0.30;;
26977;SDS011;56314;48.088;11.642;2023-04-24T05:30:07;0.35;;;0.30;;
26977;SDS011;56314;48.088;11.642;2023-04-24T05:32:34;0.38;;;0.30;;
26977;SDS011;56314;48.088;11.642;2023-04-24T05:34:59;3.35;;;0.40;;
26977;SDS011;56314;48.088;11.642;2023-04-24T05:37:25;0.45;;;0.28;;
26977;SDS011;56314;48.088;11.642;2023-04-24T05:39:50;0.60;;;0.52;;
26977;SDS011;56314;48.088;11.642;2023-04-24T05:42:16;0.82;;;0.38;;
26977;SDS011;56314;48.088;11.642;2023-04-24T05:44:41;0.40;;;0.40;;
26977;SDS011;56314;48.088;11.642;2023-04-24T05:47:06;1.85;;;0.40;;
26977;SDS011;56314;48.088;11.642;2023-04-24T05:49:32;1.27;;;0.50;;
26977;SDS011;56314;48.088;11.642;2023-04-24T05:51:57;0.30;;;0.30;;
26977;SDS011;56314;48.088;11.642;2023-04-24T05:54:22;0.20;;;0.20;;
26977;SDS011;56314;48.088;11.642;2023-04-24T05:56:48;0.65;;;0.40;;
26977;SDS011;56314;48.088;11.642;2023-04-24T05:59:15;0.40;;;0.40;;
26977;SDS011;56314;48.088;11.642;2023-04-24T06:01:40;1.02;;;0.85;;
26977;SDS011;56314;48.088;11.642;2023-04-24T06:04:06;0.30;;;0.30;;
26977;SDS011;56314;48.088;11.642;2023-04-24T06:06:32;0.30;;;0.30;;
26977;SDS011;56314;48.088;11.642;2023-04-24T06:08:57;0.35;;;0.35;;
26977;SDS011;56314;48.088;11.642;2023-04-24T06:11:23;0.40;;;0.40;;
26977;SDS011;56314;48.088;11.642;2023-04-24T06:13:49;0.30;;;0.30;;
26977;SDS011;56314;48.088;11.642;2023-04-24T06:16:15;0.28;;;0.28;;
26977;SDS011;56314;48.088;11.642;2023-04-24T06:18:40;0.50;;;0.40;;
26977;SDS011;56314;48.088;11.642;2023-04-24T06:21:06;0.40;;;0.40;;
26977;SDS011;56314;48.088;11.642;2023-04-24T06:26:06;0.30;;;0.30;;
26977;SDS011;56314;48.088;11.642;2023-04-24T06:28:32;0.55;;;0.40;;
26977;SDS011;56314;48.088;11.642;2023-04-24T06:30:57;0.20;;;0.20;;
26977;SDS011;56314;48.088;11.642;2023-04-24T06:33:22;1.85;;;0.20;;
26977;SDS011;56314;48.088;11.642;2023-04-24T06:35:48;0.20;;;0.20;;
26977;SDS011;56314;48.088;11.642;2023-04-24T06:38:13;2.72;;;0.40;;
26977;SDS011;56314;48.088;11.642;2023-04-24T06:40:38;0.28;;;0.20;;
26977;SDS011;56314;48.088;11.642;2023-04-24T06:43:04;1.95;;;0.30;;
26977;SDS011;56314;48.088;11.642;2023-04-24T06:45:29;0.30;;;0.30;;
26977;SDS011;56314;48.088;11.642;2023-04-24T06:47:55;2.28;;;0.22;;
26977;SDS011;56314;48.088;11.642;2023-04-24T06:50:20;0.75;;;0.50;;
26977;SDS011;56314;48.088;11.642;2023-04-24T06:52:46;0.40;;;0.40;;
26977;SDS011;56314;48.088;11.642;2023-04-24T06:55:11;0.20;;;0.20;;
26977;SDS011;56314;48.088;11.642;2023-04-24T06:57:37;0.28;;;0.28;;
26977;SDS011;56314;48.088;11.642;2023-04-24T07:00:03;0.20;;;0.20;;
26977;SDS011;56314;48.088;11.642;2023-04-24T07:02:30;0.15;;;0.15;;
26977;SDS011;56314;48.088;11.642;2023-04-24T07:04:55;0.43;;;0.30;;
26977;SDS011;56314;48.088;11.642;2023-04-24T07:07:21;0.90;;;0.35;;
26977;SDS011;56314;48.088;11.642;2023-04-24T07:09:48;0.30;;;0.20;;
26977;SDS011;56314;48.088;11.642;2023-04-24T07:12:15;0.20;;;0.20;;
26977;SDS011;56314;48.088;11.642;2023-04-24T07:14:41;0.25;;;0.20;;
26977;SDS011;56314;48.088;11.642;2023-04-24T07:17:07;0.35;;;0.30;;
26977;SDS011;56314;48.088;11.642;2023-04-24T07:19:33;0.98;;;0.20;;
26977;SDS011;56314;48.088;11.642;2023-04-24T07:21:59;5.47;;;0.70;;
26977;SDS011;56314;48.088;11.642;2023-04-24T07:24:25;0.38;;;0.38;;
26977;SDS011;56314;48.088;11.642;2023-04-24T07:26:51;0.35;;;0.20;;
26977;SDS011;56314;48.088;11.642;2023-04-24T07:29:17;0.28;;;0.20;;
26977;SDS011;56314;48.088;11.642;2023-04-24T07:31:42;0.80;;;0.28;;
26977;SDS011;56314;48.088;11.642;2023-04-24T07:34:07;2.28;;;0.30;;
26977;SDS011;56314;48.088;11.642;2023-04-24T07:36:33;0.20;;;0.20;;
26977;SDS011;56314;48.088;11.642;2023-04-24T07:38:58;0.47;;;0.30;;
26977;SDS011;56314;48.088;11.642;2023-04-24T07:41:24;0.65;;;0.40;;
26977;SDS011;56314;48.088;11.642;2023-04-24T07:43:49;0.30;;;0.30;;
26977;SDS011;56314;48.088;11.642;2023-04-24T07:46:14;1.73;;;0.43;;
26977;SDS011;56314;48.088;11.642;2023-04-24T07:48:40;0.88;;;0.45;;
26977;SDS011;56314;48.088;11.642;2023-04-24T07:51:05;0.30;;;0.30;;
26977;SDS011;56314;48.088;11.642;2023-04-24T07:53:31;0.75;;;0.30;;
26977;SDS011;56314;48.088;11.642;2023-04-24T07:55:56;2.88;;;0.30;;
26977;SDS011;56314;48.088;11.642;2023-04-24T07:58:21;1.10;;;1.00;;
26977;SDS011;56314;48.088;11.642;2023-04-24T08:00:47;0.30;;;0.30;;
26977;SDS011;56314;48.088;11.642;2023-04-24T08:03:12;0.30;;;0.30;;
26977;SDS011;56314;48.088;11.642;2023-04-24T08:05:38;0.32;;;0.32;;
26977;SDS011;56314;48.088;11.642;2023-04-24T08:08:03;0.20;;;0.20;;
26977;SDS011;56314;48.088;11.642;2023-04-24T08:10:29;0.20;;;0.20;;
26977;SDS011;56314;48.088;11.642;2023-04-24T08:12:55;1.58;;;0.30;;
26977;SDS011;56314;48.088;11.642;2023-04-24T08:15:20;0.20;;;0.20;;
26977;SDS011;56314;48.088;11.642;2023-04-24T08:17:46;0.30;;;0.30;;
26977;SDS011;56314;48.088;11.642;2023-04-24T08:20:11;0.75;;;0.38;;
26977;SDS011;56314;48.088;11.642;2023-04-24T08:22:40;2.78;;;0.50;;
26977;SDS011;56314;48.088;11.642;2023-04-24T08:25:06;0.77;;;0.45;;
26977;SDS011;56314;48.088;11.642;2023-04-24T08:27:32;0.30;;;0.30;;
26977;SDS011;56314;48.088;11.642;2023-04-24T08:29:58;0.28;;;0.28;;
26977;SDS011;56314;48.088;11.642;2023-04-24T08:32:26;0.22;;;0.20;;
26977;SDS011;56314;48.088;11.642;2023-04-24T08:34:54;0.10;;;0.10;;
26977;SDS011;56314;48.088;11.642;2023-04-24T08:37:21;0.20;;;0.20;;
26977;SDS011;56314;48.088;11.642;2023-04-24T08:39:51;0.55;;;0.30;;
26977;SDS011;56314;48.088;11.642;2023-04-24T08:42:16;1.58;;;0.30;;
26977;SDS011;56314;48.088;11.642;2023-04-24T08:44:43;0.20;;;0.20;;
26977;SDS011;56314;48.088;11.642;2023-04-24T08:47:09;0.40;;;0.40;;
26977;SDS011;56314;48.088;11.642;2023-04-24T08:49:36;1.27;;;0.50;;
26977;SDS011;56314;48.088;11.642;2023-04-24T08:52:02;0.50;;;0.50;;
26977;SDS011;56314;48.088;11.642;2023-04-24T08:54:28;0.65;;;0.65;;
26977;SDS011;56314;48.088;11.642;2023-04-24T08:56:56;0.55;;;0.50;;
26977;SDS011;56314;48.088;11.642;2023-04-24T08:59:25;0.68;;;0.60;;
26977;SDS011;56314;48.088;11.642;2023-04-24T09:01:51;2.33;;;0.90;;
26977;SDS011;56314;48.088;11.642;2023-04-24T09:04:18;1.58;;;0.70;;
26977;SDS011;56314;48.088;11.642;2023-04-24T09:06:47;0.98;;;0.70;;
26977;SDS011;56314;48.088;11.642;2023-04-24T09:09:13;0.40;;;0.40;;
26977;SDS011;56314;48.088;11.642;2023-04-24T09:11:42;1.80;;;0.57;;
26977;SDS011;56314;48.088;11.642;2023-04-24T09:14:07;0.68;;;0.50;;
26977;SDS011;56314;48.088;11.642;2023-04-24T09:16:34;4.70;;;0.85;;
26977;SDS011;56314;48.088;11.642;2023-04-24T09:19:00;1.13;;;0.60;;
26977;SDS011;56314;48.088;11.642;2023-04-24T09:21:27;1.95;;;0.70;;
26977;SDS011;56314;48.088;11.642;2023-04-24T09:24:01;1.45;;;0.47;;
26977;SDS011;56314;48.088;11.642;2023-04-24T09:26:33;0.77;;;0.70;;
26977;SDS011;56314;48.088;11.642;2023-04-24T09:29:00;2.30;;;0.60;;
26977;SDS011;56314;48.088;11.642;2023-04-24T09:31:27;0.40;;;0.40;;
26977;SDS011;56314;48.088;11.642;2023-04-24T09:36:29;0.60;;;0.60;;
26977;SDS011;56314;48.088;11.642;2023-04-24T09:38:58;0.50;;;0.50;;
26977;SDS011;56314;48.088;11.642;2023-04-24T09:41:24;0.85;;;0.40;;
26977;SDS011;56314;48.088;11.642;2023-04-24T09:43:50;0.60;;;0.60;;
26977;SDS011;56314;48.088;11.642;2023-04-24T09:46:19;0.50;;;0.50;;
26977;SDS011;56314;48.088;11.642;2023-04-24T09:48:46;0.68;;;0.63;;
26977;SDS011;56314;48.088;11.642;2023-04-24T09:51:11;0.60;;;0.60;;
26977;SDS011;56314;48.088;11.642;2023-04-24T09:53:37;2.50;;;1.30;;
26977;SDS011;56314;48.088;11.642;2023-04-24T09:56:07;0.60;;;0.50;;
26977;SDS011;56314;48.088;11.642;2023-04-24T09:58:37;0.60;;;0.60;;
26977;SDS011;56314;48.088;11.642;2023-04-24T10:01:03;0.70;;;0.70;;
26977;SDS011;56314;48.088;11.642;2023-04-24T10:03:32;0.73;;;0.73;;
26977;SDS011;56314;48.088;11.642;2023-04-24T10:05:58;0.50;;;0.50;;
26977;SDS011;56314;48.088;11.642;2023-04-24T10:08:25;0.52;;;0.52;;
26977;SDS011;56314;48.088;11.642;2023-04-24T10:10:51;0.73;;;0.73;;
26977;SDS011;56314;48.088;11.642;2023-04-24T10:13:17;1.30;;;1.20;;
26977;SDS011;56314;48.088;11.642;2023-04-24T10:15:43;0.70;;;0.70;;
26977;SDS011;56314;48.088;11.642;2023-04-24T10:18:09;0.70;;;0.70;;
26977;SDS011;56314;48.088;11.642;2023-04-24T10:20:36;0.90;;;0.75;;
26977;SDS011;56314;48.088;11.642;2023-04-24T10:23:04;1.52;;;0.80;;
26977;SDS011;56314;48.088;11.642;2023-04-24T10:25:31;2.25;;;1.33;;
26977;SDS011;56314;48.088;11.642;2023-04-24T10:27:58;1.05;;;0.90;;
26977;SDS011;56314;48.088;11.642;2023-04-24T10:30:26;0.77;;;0.77;;
26977;SDS011;56314;48.088;11.642;2023-04-24T10:32:53;1.05;;;0.90;;
26977;SDS011;56314;48.088;11.642;2023-04-24T10:35:19;1.27;;;0.93;;
26977;SDS011;56314;48.088;11.642;2023-04-24T10:37:50;1.27;;;0.70;;
26977;SDS011;56314;48.088;11.642;2023-04-24T10:40:25;2.20;;;0.68;;
26977;SDS011;56314;48.088;11.642;2023-04-24T10:42:53;0.60;;;0.60;;
26977;SDS011;56314;48.088;11.642;2023-04-24T10:45:19;1.05;;;0.75;;
26977;SDS011;56314;48.088;11.642;2023-04-24T10:50:45;0.80;;;0.80;;
26977;SDS011;56314;48.088;11.642;2023-04-24T10:53:15;0.75;;;0.75;;
26977;SDS011;56314;48.088;11.642;2023-04-24T10:56:05;2.70;;;0.68;;
26977;SDS011;56314;48.088;11.642;2023-04-24T10:58:50;0.85;;;0.70;;
26977;SDS011;56314;48.088;11.642;2023-04-24T11:01:27;1.00;;;0.63;;
26977;SDS011;56314;48.088;11.642;2023-04-24T11:03:57;0.25;;;0.22;;
26977;SDS011;56314;48.088;11.642;2023-04-24T11:06:28;0.85;;;0.40;;
26977;SDS011;56314;48.088;11.642;2023-04-24T11:09:01;0.40;;;0.40;;
26977;SDS011;56314;48.088;11.642;2023-04-24T11:11:30;0.38;;;0.38;;
26977;SDS011;56314;48.088;11.642;2023-04-24T11:16:25;0.55;;;0.55;;
26977;SDS011;56314;48.088;11.642;2023-04-24T11:24:50;1.65;;;0.55;;
26977;SDS011;56314;48.088;11.642;2023-04-24T11:35:04;0.95;;;0.77;;
26977;SDS011;56314;48.088;11.642;2023-04-24T11:37:41;0.77;;;0.77;;
26977;SDS011;56314;48.088;11.642;2023-04-24T11:40:10;0.70;;;0.70;;
26977;SDS011;56314;48.088;11.642;2023-04-24T11:42:38;0.60;;;0.60;;
26977;SDS011;56314;48.088;11.642;2023-04-24T11:47:36;0.98;;;0.50;;
26977;SDS011;56314;48.088;11.642;2023-04-24T11:50:02;0.65;;;0.65;;
26977;SDS011;56314;48.088;11.642;2023-04-24T11:52:33;0.80;;;0.70;;
26977;SDS011;56314;48.088;11.642;2023-04-24T11:55:01;0.70;;;0.70;;
26977;SDS011;56314;48.088;11.642;2023-04-24T11:57:27;1.17;;;0.52;;
26977;SDS011;56314;48.088;11.642;2023-04-24T11:59:58;0.80;;;0.80;;
26977;SDS011;56314;48.088;11.642;2023-04-24T12:02:24;0.90;;;0.90;;
26977;SDS011;56314;48.088;11.642;2023-04-24T12:04:50;0.68;;;0.68;;
26977;SDS011;56314;48.088;11.642;2023-04-24T12:07:16;0.70;;;0.70;;
26977;SDS011;56314;48.088;11.642;2023-04-24T12:09:42;0.60;;;0.60;;
26977;SDS011;56314;48.088;11.642;2023-04-24T12:12:12;1.08;;;0.70;;
26977;SDS011;56314;48.088;11.642;2023-04-24T12:14:48;0.80;;;0.80;;
26977;SDS011;56314;48.088;11.642;2023-04-24T12:17:24;1.75;;;0.88;;
26977;SDS011;56314;48.088;11.642;2023-04-24T12:19:51;0.80;;;0.80;;
26977;SDS011;56314;48.088;11.642;2023-04-24T12:22:18;2.10;;;0.65;;
26977;SDS011;56314;48.088;11.642;2023-04-24T12:24:56;1.15;;;0.60;;
26977;SDS011;56314;48.088;11.642;2023-04-24T12:27:22;0.60;;;0.60;;
26977;SDS011;56314;48.088;11.642;2023-04-24T12:29:51;1.85;;;0.70;;
26977;SDS011;56314;48.088;11.642;2023-04-24T12:32:18;0.60;;;0.60;;
26977;SDS011;56314;48.088;11.642;2023-04-24T12:34:43;0.70;;;0.70;;
26977;SDS011;56314;48.088;11.642;2023-04-24T12:37:10;1.17;;;0.80;;
26977;SDS011;56314;48.088;11.642;2023-04-24T12:39:36;0.93;;;0.77;;
26977;SDS011;56314;48.088;11.642;2023-04-24T12:42:01;0.60;;;0.60;;
26977;SDS011;56314;48.088;11.642;2023-04-24T12:46:55;2.05;;;0.77;;
26977;SDS011;56314;48.088;11.642;2023-04-24T12:49:20;1.00;;;0.90;;
26977;SDS011;56314;48.088;11.642;2023-04-24T12:51:46;0.73;;;0.73;;
26977;SDS011;56314;48.088;11.642;2023-04-24T12:54:11;0.93;;;0.85;;
26977;SDS011;56314;48.088;11.642;2023-04-24T12:56:36;0.88;;;0.75;;
26977;SDS011;56314;48.088;11.642;2023-04-24T12:59:04;0.75;;;0.75;;
26977;SDS011;56314;48.088;11.642;2023-04-24T13:01:30;1.10;;;0.80;;
26977;SDS011;56314;48.088;11.642;2023-04-24T13:03:55;1.00;;;0.95;;
26977;SDS011;56314;48.088;11.642;2023-04-24T13:06:21;1.00;;;0.90;;
26977;SDS011;56314;48.088;11.642;2023-04-24T13:08:46;3.80;;;0.90;;
26977;SDS011;56314;48.088;11.642;2023-04-24T13:11:12;1.02;;;0.90;;
26977;SDS011;56314;48.088;11.642;2023-04-24T13:13:38;2.38;;;1.00;;
26977;SDS011;56314;48.088;11.642;2023-04-24T13:16:04;1.80;;;1.15;;
26977;SDS011;56314;48.088;11.642;2023-04-24T13:18:30;2.38;;;2.00;;
26977;SDS011;56314;48.088;11.642;2023-04-24T13:20:55;1.45;;;0.80;;
26977;SDS011;56314;48.088;11.642;2023-04-24T13:23:21;1.55;;;1.05;;
26977;SDS011;56314;48.088;11.642;2023-04-24T13:25:47;1.10;;;0.70;;
26977;SDS011;56314;48.088;11.642;2023-04-24T13:28:13;3.10;;;1.20;;
26977;SDS011;56314;48.088;11.642;2023-04-24T13:30:38;0.93;;;0.93;;
26977;SDS011;56314;48.088;11.642;2023-04-24T13:33:03;0.70;;;0.70;;
26977;SDS011;56314;48.088;11.642;2023-04-24T13:35:29;0.70;;;0.70;;
26977;SDS011;56314;48.088;11.642;2023-04-24T13:37:54;0.70;;;0.70;;
26977;SDS011;56314;48.088;11.642;2023-04-24T13:40:20;1.10;;;0.90;;
26977;SDS011;56314;48.088;11.642;2023-04-24T13:42:45;2.08;;;1.17;;
26977;SDS011;56314;48.088;11.642;2023-04-24T13:45:10;0.90;;;0.80;;
26977;SDS011;56314;48.088;11.642;2023-04-24T13:47:36;2.05;;;1.15;;
26977;SDS011;56314;48.088;11.642;2023-04-24T13:50:01;2.70;;;1.05;;
26977;SDS011;56314;48.088;11.642;2023-04-24T13:52:27;0.65;;;0.65;;
26977;SDS011;56314;48.088;11.642;2023-04-24T13:54:53;1.35;;;0.85;;
26977;SDS011;56314;48.088;11.642;2023-04-24T13:57:18;0.98;;;0.98;;
26977;SDS011;56314;48.088;11.642;2023-04-24T13:59:44;0.80;;;0.80;;
26977;SDS011;56314;48.088;11.642;2023-04-24T14:02:10;1.30;;;0.90;;
26977;SDS011;56314;48.088;11.642;2023-04-24T14:04:36;1.45;;;0.90;;
26977;SDS011;56314;48.088;11.642;2023-04-24T14:07:01;1.20;;;1.10;;
26977;SDS011;56314;48.088;11.642;2023-04-24T14:09:26;1.02;;;1.02;;
26977;SDS011;56314;48.088;11.642;2023-04-24T14:11:52;0.88;;;0.88;;
26977;SDS011;56314;48.088;11.642;2023-04-24T14:14:17;1.35;;;0.80;;
26977;SDS011;56314;48.088;11.642;2023-04-24T14:16:42;2.17;;;0.90;;
26977;SDS011;56314;48.088;11.642;2023-04-24T14:19:08;3.05;;;0.98;;
26977;SDS011;56314;48.088;11.642;2023-04-24T14:21:33;0.98;;;0.95;;
26977;SDS011;56314;48.088;11.642;2023-04-24T14:23:58;0.90;;;0.90;;
26977;SDS011;56314;48.088;11.642;2023-04-24T14:26:24;1.77;;;0.95;;
26977;SDS011;56314;48.088;11.642;2023-04-24T14:28:50;1.08;;;0.88;;
26977;SDS011;56314;48.088;11.642;2023-04-24T14:31:16;1.25;;;0.85;;
26977;SDS011;56314;48.088;11.642;2023-04-24T14:33:41;0.80;;;0.80;;
26977;SDS011;56314;48.088;11.642;2023-04-24T14:36:06;1.95;;;1.23;;
26977;SDS011;56314;48.088;11.642;2023-04-24T14:38:32;1.10;;;1.00;;
26977;SDS011;56314;48.088;11.642;2023-04-24T14:40:57;1.67;;;1.00;;
26977;SDS011;56314;48.088;11.642;2023-04-24T14:43:22;1.25;;;1.15;;
26977;SDS011;56314;48.088;11.642;2023-04-24T14:45:48;2.25;;;1.00;;
26977;SDS011;56314;48.088;11.642;2023-04-24T14:48:13;2.22;;;1.10;;
26977;SDS011;56314;48.088;11.642;2023-04-24T14:50:39;1.27;;;1.00;;
26977;SDS011;56314;48.088;11.642;2023-04-24T14:53:04;1.75;;;1.13;;
26977;SDS011;56314;48.088;11.642;2023-04-24T14:55:30;2.08;;;1.25;;
26977;SDS011;56314;48.088;11.642;2023-04-24T14:57:55;1.95;;;1.15;;